sensor_id;sensor_type;location;lat;lon;timestamp;pressure;altitude;pressure_sealevel;temperature;humidity
77410;BME280;66481;51.332;22.804;2023-04-03T00:02:52;99755.66;;;0.80;95.93
77410;BME280;66481;51.332;22.804;2023-04-03T00:06:53;99743.97;;;0.65;96.22
77410;BME280;66481;51.332;22.804;2023-04-03T00:10:54;99753.50;;;0.66;96.18
77410;BME280;66481;51.332;22.804;2023-04-03T00:14:55;99748.47;;;0.60;96.12
77410;BME280;66481;51.332;22.804;2023-04-03T00:18:56;99750.19;;;0.61;96.04
77410;BME280;66481;51.332;22.804;2023-04-03T00:22:57;99754.44;;;0.63;95.83
77410;BME280;66481;51.332;22.804;2023-04-03T00:26:59;99746.06;;;0.53;96.15
77410;BME280;66481;51.332;22.804;2023-04-03T00:31:00;99747.72;;;0.56;95.95
77410;BME280;66481;51.332;22.804;2023-04-03T00:35:01;99765.16;;;0.54;95.95
77410;BME280;66481;51.332;22.804;2023-04-03T00:39:02;99762.09;;;0.40;96.06
77410;BME280;66481;51.332;22.804;2023-04-03T00:43:11;99769.81;;;0.43;96.55
77410;BME280;66481;51.332;22.804;2023-04-03T00:47:16;99768.22;;;0.39;96.63
77410;BME280;66481;51.332;22.804;2023-04-03T00:51:20;99779.44;;;0.41;97.15
77410;BME280;66481;51.332;22.804;2023-04-03T00:55:24;99775.00;;;0.44;96.05
77410;BME280;66481;51.332;22.804;2023-04-03T00:59:30;99775.88;;;0.43;96.32
77410;BME280;66481;51.332;22.804;2023-04-03T01:03:33;99769.16;;;0.36;96.30
77410;BME280;66481;51.332;22.804;2023-04-03T01:07:34;99776.97;;;0.36;96.37
77410;BME280;66481;51.332;22.804;2023-04-03T01:11:37;99779.56;;;0.36;96.27
77410;BME280;66481;51.332;22.804;2023-04-03T01:15:39;99788.34;;;0.33;97.16
77410;BME280;66481;51.332;22.804;2023-04-03T01:19:44;99793.81;;;0.24;96.89
77410;BME280;66481;51.332;22.804;2023-04-03T01:24:17;99793.91;;;0.21;97.35
77410;BME280;66481;51.332;22.804;2023-04-03T01:28:26;99793.09;;;0.19;97.44
77410;BME280;66481;51.332;22.804;2023-04-03T01:32:27;99792.13;;;0.23;97.01
77410;BME280;66481;51.332;22.804;2023-04-03T01:36:30;99788.56;;;0.26;96.29
77410;BME280;66481;51.332;22.804;2023-04-03T01:40:31;99792.91;;;0.25;96.50
77410;BME280;66481;51.332;22.804;2023-04-03T01:44:32;99799.72;;;0.29;96.99
77410;BME280;66481;51.332;22.804;2023-04-03T01:48:33;99797.03;;;0.32;96.22
77410;BME280;66481;51.332;22.804;2023-04-03T01:52:35;99799.81;;;0.28;95.91
77410;BME280;66481;51.332;22.804;2023-04-03T01:56:36;99806.66;;;0.30;96.19
77410;BME280;66481;51.332;22.804;2023-04-03T02:00:38;99802.25;;;0.32;96.50
77410;BME280;66481;51.332;22.804;2023-04-03T02:04:40;99801.44;;;0.30;96.40
77410;BME280;66481;51.332;22.804;2023-04-03T02:08:41;99809.00;;;0.38;95.55
77410;BME280;66481;51.332;22.804;2023-04-03T02:12:42;99799.59;;;0.34;95.89
77410;BME280;66481;51.332;22.804;2023-04-03T02:16:43;99798.75;;;0.33;96.21
77410;BME280;66481;51.332;22.804;2023-04-03T02:20:44;99802.94;;;0.37;96.52
77410;BME280;66481;51.332;22.804;2023-04-03T02:24:45;99809.91;;;0.37;97.21
77410;BME280;66481;51.332;22.804;2023-04-03T02:28:46;99803.56;;;0.46;96.54
77410;BME280;66481;51.332;22.804;2023-04-03T02:32:47;99809.72;;;0.43;96.99
77410;BME280;66481;51.332;22.804;2023-04-03T02:36:48;99821.00;;;0.44;96.40
77410;BME280;66481;51.332;22.804;2023-04-03T02:40:49;99819.41;;;0.38;95.52
77410;BME280;66481;51.332;22.804;2023-04-03T02:44:51;99818.63;;;0.36;95.56
77410;BME280;66481;51.332;22.804;2023-04-03T02:48:52;99819.69;;;0.29;95.46
77410;BME280;66481;51.332;22.804;2023-04-03T02:52:53;99830.47;;;0.16;94.75
77410;BME280;66481;51.332;22.804;2023-04-03T02:56:54;99824.69;;;0.07;94.92
77410;BME280;66481;51.332;22.804;2023-04-03T03:00:56;99828.16;;;0.07;95.20
77410;BME280;66481;51.332;22.804;2023-04-03T03:04:57;99832.03;;;-0.08;94.81
77410;BME280;66481;51.332;22.804;2023-04-03T03:08:57;99839.00;;;-0.08;94.89
77410;BME280;66481;51.332;22.804;2023-04-03T03:12:59;99839.06;;;-0.11;95.60
77410;BME280;66481;51.332;22.804;2023-04-03T03:17:00;99844.31;;;-0.13;95.96
77410;BME280;66481;51.332;22.804;2023-04-03T03:21:02;99846.94;;;-0.14;94.58
77410;BME280;66481;51.332;22.804;2023-04-03T03:25:04;99844.69;;;-0.27;95.30
77410;BME280;66481;51.332;22.804;2023-04-03T03:29:05;99855.13;;;-0.28;96.22
77410;BME280;66481;51.332;22.804;2023-04-03T03:33:06;99852.53;;;-0.28;95.16
77410;BME280;66481;51.332;22.804;2023-04-03T03:37:07;99852.00;;;-0.41;94.97
77410;BME280;66481;51.332;22.804;2023-04-03T03:41:08;99858.81;;;-0.37;95.28
77410;BME280;66481;51.332;22.804;2023-04-03T03:45:09;99852.94;;;-0.44;94.74
77410;BME280;66481;51.332;22.804;2023-04-03T03:49:11;99859.84;;;-0.43;94.94
77410;BME280;66481;51.332;22.804;2023-04-03T03:53:12;99855.72;;;-0.50;94.07
77410;BME280;66481;51.332;22.804;2023-04-03T03:57:13;99860.88;;;-0.48;94.89
77410;BME280;66481;51.332;22.804;2023-04-03T04:01:14;99870.44;;;-0.50;94.29
77410;BME280;66481;51.332;22.804;2023-04-03T04:05:16;99877.34;;;-0.49;93.54
77410;BME280;66481;51.332;22.804;2023-04-03T04:09:17;99883.41;;;-0.50;93.88
77410;BME280;66481;51.332;22.804;2023-04-03T04:13:19;99884.38;;;-0.53;94.57
77410;BME280;66481;51.332;22.804;2023-04-03T04:17:21;99875.06;;;-0.62;93.72
77410;BME280;66481;51.332;22.804;2023-04-03T04:21:22;99887.75;;;-0.49;92.92
77410;BME280;66481;51.332;22.804;2023-04-03T04:25:24;99870.00;;;-0.68;93.05
77410;BME280;66481;51.332;22.804;2023-04-03T04:29:25;99889.84;;;-0.64;93.03
77410;BME280;66481;51.332;22.804;2023-04-03T04:33:26;99896.66;;;-0.60;92.00
77410;BME280;66481;51.332;22.804;2023-04-03T04:37:27;99899.25;;;-0.60;90.34
77410;BME280;66481;51.332;22.804;2023-04-03T04:41:28;99900.13;;;-0.61;88.44
77410;BME280;66481;51.332;22.804;2023-04-03T04:45:29;99912.31;;;-0.63;88.53
77410;BME280;66481;51.332;22.804;2023-04-03T04:49:31;99902.84;;;-0.64;88.31
77410;BME280;66481;51.332;22.804;2023-04-03T04:53:32;99912.34;;;-0.64;88.51
77410;BME280;66481;51.332;22.804;2023-04-03T04:57:33;99920.13;;;-0.63;87.63
77410;BME280;66481;51.332;22.804;2023-04-03T05:01:35;99918.28;;;-0.59;88.15
77410;BME280;66481;51.332;22.804;2023-04-03T05:05:36;99892.34;;;-0.61;84.69
77410;BME280;66481;51.332;22.804;2023-04-03T05:09:37;99916.44;;;-0.54;82.64
77410;BME280;66481;51.332;22.804;2023-04-03T05:13:39;99922.41;;;-0.50;81.95
77410;BME280;66481;51.332;22.804;2023-04-03T05:17:40;99925.00;;;-0.50;81.82
77410;BME280;66481;51.332;22.804;2023-04-03T05:21:41;99936.06;;;-0.42;81.83
77410;BME280;66481;51.332;22.804;2023-04-03T05:25:42;99934.28;;;-0.40;80.94
77410;BME280;66481;51.332;22.804;2023-04-03T05:29:45;99935.19;;;-0.41;83.51
77410;BME280;66481;51.332;22.804;2023-04-03T05:33:46;99903.31;;;-0.48;80.67
77410;BME280;66481;51.332;22.804;2023-04-03T05:37:48;99931.78;;;-0.43;80.27
77410;BME280;66481;51.332;22.804;2023-04-03T05:41:49;99938.72;;;-0.44;80.79
77410;BME280;66481;51.332;22.804;2023-04-03T05:45:55;99909.19;;;-0.41;80.05
77410;BME280;66481;51.332;22.804;2023-04-03T05:49:59;99946.34;;;-0.36;80.35
77410;BME280;66481;51.332;22.804;2023-04-03T05:54:23;99951.31;;;-0.28;79.84
77410;BME280;66481;51.332;22.804;2023-04-03T05:58:25;99954.66;;;-0.23;78.32
77410;BME280;66481;51.332;22.804;2023-04-03T06:02:26;99969.09;;;-0.11;78.47
77410;BME280;66481;51.332;22.804;2023-04-03T06:06:47;99975.03;;;-0.06;78.61
77410;BME280;66481;51.332;22.804;2023-04-03T06:10:48;99968.03;;;-0.04;77.70
77410;BME280;66481;51.332;22.804;2023-04-03T06:14:49;99963.13;;;-0.15;75.54
77410;BME280;66481;51.332;22.804;2023-04-03T06:18:52;99971.84;;;-0.17;76.84
77410;BME280;66481;51.332;22.804;2023-04-03T06:22:54;99974.31;;;-0.11;78.02
77410;BME280;66481;51.332;22.804;2023-04-03T06:26:55;99974.38;;;-0.14;77.14
77410;BME280;66481;51.332;22.804;2023-04-03T06:30:56;99981.41;;;-0.18;77.40
77410;BME280;66481;51.332;22.804;2023-04-03T06:34:57;99978.00;;;-0.20;76.97
77410;BME280;66481;51.332;22.804;2023-04-03T06:38:59;99994.44;;;-0.20;77.22
77410;BME280;66481;51.332;22.804;2023-04-03T06:43:00;99996.34;;;-0.26;77.32
77410;BME280;66481;51.332;22.804;2023-04-03T06:47:02;99999.84;;;-0.27;74.81
77410;BME280;66481;51.332;22.804;2023-04-03T06:51:03;100005.47;;;-0.10;76.11
77410;BME280;66481;51.332;22.804;2023-04-03T06:55:05;100016.28;;;0.09;75.95
77410;BME280;66481;51.332;22.804;2023-04-03T06:59:07;100011.63;;;0.21;74.70
77410;BME280;66481;51.332;22.804;2023-04-03T07:03:09;100016.81;;;0.21;74.47
77410;BME280;66481;51.332;22.804;2023-04-03T07:07:11;100011.31;;;0.33;73.43
77410;BME280;66481;51.332;22.804;2023-04-03T07:11:12;100013.41;;;0.51;73.39
77410;BME280;66481;51.332;22.804;2023-04-03T07:15:15;100019.91;;;0.98;71.77
77410;BME280;66481;51.332;22.804;2023-04-03T07:19:16;100021.59;;;1.28;68.91
77410;BME280;66481;51.332;22.804;2023-04-03T07:23:19;100036.81;;;1.71;69.46
77410;BME280;66481;51.332;22.804;2023-04-03T07:27:20;100028.06;;;1.98;66.81
77410;BME280;66481;51.332;22.804;2023-04-03T07:31:22;100029.00;;;1.97;65.03
77410;BME280;66481;51.332;22.804;2023-04-03T07:35:23;100036.16;;;1.91;65.66
77410;BME280;66481;51.332;22.804;2023-04-03T07:44:40;100037.91;;;1.63;63.26
77410;BME280;66481;51.332;22.804;2023-04-03T07:48:42;100041.63;;;1.56;63.12
77410;BME280;66481;51.332;22.804;2023-04-03T07:52:43;100041.84;;;1.48;61.74
77410;BME280;66481;51.332;22.804;2023-04-03T08:02:05;100047.00;;;1.50;63.03
77410;BME280;66481;51.332;22.804;2023-04-03T08:06:07;100055.66;;;1.50;62.79
77410;BME280;66481;51.332;22.804;2023-04-03T08:10:09;100064.16;;;1.57;62.27
77410;BME280;66481;51.332;22.804;2023-04-03T08:14:11;100050.38;;;1.54;59.24
77410;BME280;66481;51.332;22.804;2023-04-03T08:18:17;100057.06;;;1.62;60.61
77410;BME280;66481;51.332;22.804;2023-04-03T08:22:22;100058.47;;;1.44;60.26
77410;BME280;66481;51.332;22.804;2023-04-03T08:26:23;100072.03;;;1.56;61.16
77410;BME280;66481;51.332;22.804;2023-04-03T08:30:24;100074.50;;;1.60;61.09
77410;BME280;66481;51.332;22.804;2023-04-03T08:34:25;100061.41;;;1.62;59.25
77410;BME280;66481;51.332;22.804;2023-04-03T08:38:26;100090.56;;;1.46;58.51
77410;BME280;66481;51.332;22.804;2023-04-03T08:46:46;100085.47;;;1.72;59.46
77410;BME280;66481;51.332;22.804;2023-04-03T08:50:56;100087.53;;;1.60;58.99
77410;BME280;66481;51.332;22.804;2023-04-03T08:55:00;100082.63;;;1.51;57.05
77410;BME280;66481;51.332;22.804;2023-04-03T08:59:10;100091.25;;;1.53;56.70
77410;BME280;66481;51.332;22.804;2023-04-03T09:03:13;100091.06;;;1.59;57.34
77410;BME280;66481;51.332;22.804;2023-04-03T09:16:21;100078.94;;;1.85;57.64
77410;BME280;66481;51.332;22.804;2023-04-03T09:25:16;100085.00;;;1.87;55.87
77410;BME280;66481;51.332;22.804;2023-04-03T09:29:23;100087.34;;;1.95;55.56
77410;BME280;66481;51.332;22.804;2023-04-03T09:33:24;100083.06;;;2.19;57.12
77410;BME280;66481;51.332;22.804;2023-04-03T09:37:36;100090.03;;;2.45;57.21
77410;BME280;66481;51.332;22.804;2023-04-03T09:41:38;100092.16;;;2.59;55.26
77410;BME280;66481;51.332;22.804;2023-04-03T09:45:39;100077.91;;;2.68;53.45
77410;BME280;66481;51.332;22.804;2023-04-03T09:49:40;100100.31;;;2.75;53.76
77410;BME280;66481;51.332;22.804;2023-04-03T09:53:43;100107.72;;;2.87;54.10
77410;BME280;66481;51.332;22.804;2023-04-03T09:57:45;100109.16;;;3.19;52.73
77410;BME280;66481;51.332;22.804;2023-04-03T10:02:03;100092.56;;;2.97;52.97
77410;BME280;66481;51.332;22.804;2023-04-03T10:06:23;100118.88;;;3.16;52.65
77410;BME280;66481;51.332;22.804;2023-04-03T10:10:25;100110.63;;;3.74;52.43
77410;BME280;66481;51.332;22.804;2023-04-03T10:29:20;100108.25;;;3.44;54.08
77410;BME280;66481;51.332;22.804;2023-04-03T10:33:35;100115.34;;;3.64;53.65
77410;BME280;66481;51.332;22.804;2023-04-03T10:42:08;100100.78;;;4.01;50.71
77410;BME280;66481;51.332;22.804;2023-04-03T10:46:32;100106.28;;;4.17;50.76
77410;BME280;66481;51.332;22.804;2023-04-03T10:50:46;100110.88;;;4.74;51.38
77410;BME280;66481;51.332;22.804;2023-04-03T10:55:02;100110.56;;;4.40;49.08
77410;BME280;66481;51.332;22.804;2023-04-03T11:03:36;100113.56;;;4.51;48.36
77410;BME280;66481;51.332;22.804;2023-04-03T11:07:51;100102.03;;;4.76;48.19
77410;BME280;66481;51.332;22.804;2023-04-03T11:12:04;100108.25;;;4.74;47.34
77410;BME280;66481;51.332;22.804;2023-04-03T11:16:08;100120.38;;;4.56;49.65
77410;BME280;66481;51.332;22.804;2023-04-03T11:24:26;100124.72;;;4.14;49.28
77410;BME280;66481;51.332;22.804;2023-04-03T11:28:28;100122.56;;;4.24;51.55
77410;BME280;66481;51.332;22.804;2023-04-03T11:32:58;100124.53;;;3.74;49.94
77410;BME280;66481;51.332;22.804;2023-04-03T11:41:28;100108.81;;;3.52;49.38
77410;BME280;66481;51.332;22.804;2023-04-03T11:45:37;100122.16;;;3.68;50.78
77410;BME280;66481;51.332;22.804;2023-04-03T11:50:01;100119.94;;;3.57;49.02
77410;BME280;66481;51.332;22.804;2023-04-03T11:54:43;100111.13;;;3.82;49.21
77410;BME280;66481;51.332;22.804;2023-04-03T12:07:29;100118.13;;;4.46;46.52
77410;BME280;66481;51.332;22.804;2023-04-03T12:11:32;100114.94;;;4.40;47.23
77410;BME280;66481;51.332;22.804;2023-04-03T12:15:49;100110.13;;;4.29;46.97
77410;BME280;66481;51.332;22.804;2023-04-03T12:19:52;100107.88;;;4.62;47.54
77410;BME280;66481;51.332;22.804;2023-04-03T12:24:23;100118.38;;;4.62;47.05
77410;BME280;66481;51.332;22.804;2023-04-03T12:28:24;100114.94;;;4.81;46.71
77410;BME280;66481;51.332;22.804;2023-04-03T12:33:04;100120.00;;;4.65;49.24
77410;BME280;66481;51.332;22.804;2023-04-03T12:41:44;100113.13;;;4.42;46.38
77410;BME280;66481;51.332;22.804;2023-04-03T12:49:53;100130.81;;;4.14;46.81
77410;BME280;66481;51.332;22.804;2023-04-03T12:54:12;100129.25;;;4.10;44.78
77410;BME280;66481;51.332;22.804;2023-04-03T12:58:24;100128.72;;;3.79;46.81
77410;BME280;66481;51.332;22.804;2023-04-03T13:02:29;100134.91;;;3.78;49.17
77410;BME280;66481;51.332;22.804;2023-04-03T13:06:37;100144.88;;;3.90;47.29
77410;BME280;66481;51.332;22.804;2023-04-03T13:14:56;100140.03;;;4.45;48.42
77410;BME280;66481;51.332;22.804;2023-04-03T13:18:58;100130.47;;;4.65;46.47
77410;BME280;66481;51.332;22.804;2023-04-03T13:23:05;100134.47;;;4.94;47.00
77410;BME280;66481;51.332;22.804;2023-04-03T13:27:11;100128.38;;;4.52;44.75
77410;BME280;66481;51.332;22.804;2023-04-03T13:35:40;100135.44;;;4.08;47.34
77410;BME280;66481;51.332;22.804;2023-04-03T13:39:41;100119.84;;;4.05;47.03
77410;BME280;66481;51.332;22.804;2023-04-03T13:43:42;100141.94;;;4.20;49.18
77410;BME280;66481;51.332;22.804;2023-04-03T13:47:45;100124.13;;;4.07;46.46
77410;BME280;66481;51.332;22.804;2023-04-03T13:51:48;100126.78;;;4.06;47.74
77410;BME280;66481;51.332;22.804;2023-04-03T13:56:06;100126.78;;;4.06;47.87
77410;BME280;66481;51.332;22.804;2023-04-03T14:04:27;100132.06;;;3.82;47.65
77410;BME280;66481;51.332;22.804;2023-04-03T14:08:30;100143.50;;;3.57;48.33
77410;BME280;66481;51.332;22.804;2023-04-03T14:12:38;100140.88;;;3.57;47.60
77410;BME280;66481;51.332;22.804;2023-04-03T14:16:48;100142.13;;;3.71;48.82
77410;BME280;66481;51.332;22.804;2023-04-03T14:20:51;100147.31;;;3.72;48.84
77410;BME280;66481;51.332;22.804;2023-04-03T14:24:53;100142.03;;;3.74;48.66
77410;BME280;66481;51.332;22.804;2023-04-03T14:28:55;100142.28;;;3.66;46.06
77410;BME280;66481;51.332;22.804;2023-04-03T14:32:57;100150.13;;;3.90;48.43
77410;BME280;66481;51.332;22.804;2023-04-03T14:36:59;100129.09;;;3.69;48.48
77410;BME280;66481;51.332;22.804;2023-04-03T14:41:01;100148.47;;;3.65;47.17
77410;BME280;66481;51.332;22.804;2023-04-03T14:45:09;100155.56;;;3.62;47.42
77410;BME280;66481;51.332;22.804;2023-04-03T14:49:32;100136.41;;;3.37;47.36
77410;BME280;66481;51.332;22.804;2023-04-03T14:53:34;100152.91;;;3.39;47.96
77410;BME280;66481;51.332;22.804;2023-04-03T14:57:36;100149.41;;;3.39;49.99
77410;BME280;66481;51.332;22.804;2023-04-03T15:01:38;100153.81;;;3.38;50.35
77410;BME280;66481;51.332;22.804;2023-04-03T15:05:39;100154.88;;;3.33;51.41
77410;BME280;66481;51.332;22.804;2023-04-03T15:09:41;100157.72;;;3.27;52.37
77410;BME280;66481;51.332;22.804;2023-04-03T15:13:43;100155.44;;;3.17;51.31
77410;BME280;66481;51.332;22.804;2023-04-03T15:17:45;100158.78;;;3.21;51.93
77410;BME280;66481;51.332;22.804;2023-04-03T15:21:47;100146.69;;;3.18;52.69
77410;BME280;66481;51.332;22.804;2023-04-03T15:25:48;100142.72;;;3.08;52.93
77410;BME280;66481;51.332;22.804;2023-04-03T15:29:51;100150.75;;;3.02;51.54
77410;BME280;66481;51.332;22.804;2023-04-03T15:33:52;100137.16;;;2.92;50.55
77410;BME280;66481;51.332;22.804;2023-04-03T15:37:54;100145.06;;;2.91;52.45
77410;BME280;66481;51.332;22.804;2023-04-03T15:41:56;100145.06;;;2.91;51.09
77410;BME280;66481;51.332;22.804;2023-04-03T15:46:01;100145.63;;;2.99;50.95
77410;BME280;66481;51.332;22.804;2023-04-03T15:50:03;100139.22;;;3.08;49.60
77410;BME280;66481;51.332;22.804;2023-04-03T15:54:08;100143.03;;;2.99;52.04
77410;BME280;66481;51.332;22.804;2023-04-03T15:58:09;100137.78;;;2.99;50.60
77410;BME280;66481;51.332;22.804;2023-04-03T16:02:13;100132.91;;;2.90;50.32
77410;BME280;66481;51.332;22.804;2023-04-03T16:06:16;100141.69;;;2.87;52.81
77410;BME280;66481;51.332;22.804;2023-04-03T16:10:21;100144.44;;;2.84;53.05
77410;BME280;66481;51.332;22.804;2023-04-03T16:14:23;100150.84;;;2.75;52.79
77410;BME280;66481;51.332;22.804;2023-04-03T16:18:26;100148.31;;;2.72;51.87
77410;BME280;66481;51.332;22.804;2023-04-03T16:22:28;100149.31;;;2.68;52.48
77410;BME280;66481;51.332;22.804;2023-04-03T16:26:31;100138.38;;;2.57;52.63
77410;BME280;66481;51.332;22.804;2023-04-03T16:30:33;100145.47;;;2.53;53.04
77410;BME280;66481;51.332;22.804;2023-04-03T16:34:35;100150.13;;;2.43;53.58
77410;BME280;66481;51.332;22.804;2023-04-03T16:38:37;100155.47;;;2.40;54.36
77410;BME280;66481;51.332;22.804;2023-04-03T16:42:40;100160.69;;;2.40;52.96
77410;BME280;66481;51.332;22.804;2023-04-03T16:46:43;100162.72;;;2.32;53.88
77410;BME280;66481;51.332;22.804;2023-04-03T16:50:49;100164.41;;;2.33;54.85
77410;BME280;66481;51.332;22.804;2023-04-03T16:54:54;100170.16;;;2.16;55.47
77410;BME280;66481;51.332;22.804;2023-04-03T16:58:57;100165.09;;;2.12;53.78
77410;BME280;66481;51.332;22.804;2023-04-03T17:02:59;100169.41;;;2.13;55.05
77410;BME280;66481;51.332;22.804;2023-04-03T17:07:01;100174.00;;;2.06;54.89
77410;BME280;66481;51.332;22.804;2023-04-03T17:11:08;100175.44;;;1.86;56.31
77410;BME280;66481;51.332;22.804;2023-04-03T17:15:11;100183.13;;;1.91;56.06
77410;BME280;66481;51.332;22.804;2023-04-03T17:19:13;100188.28;;;1.94;57.32
77410;BME280;66481;51.332;22.804;2023-04-03T17:23:15;100196.34;;;1.85;57.73
77410;BME280;66481;51.332;22.804;2023-04-03T17:27:18;100206.91;;;1.82;57.73
77410;BME280;66481;51.332;22.804;2023-04-03T17:31:20;100205.50;;;1.70;59.11
77410;BME280;66481;51.332;22.804;2023-04-03T17:35:22;100221.19;;;1.68;59.91
77410;BME280;66481;51.332;22.804;2023-04-03T17:39:25;100217.19;;;1.57;60.56
77410;BME280;66481;51.332;22.804;2023-04-03T17:43:27;100215.38;;;1.59;60.19
77410;BME280;66481;51.332;22.804;2023-04-03T17:47:30;100216.31;;;1.58;60.28
77410;BME280;66481;51.332;22.804;2023-04-03T17:51:32;100225.06;;;1.55;60.85
77410;BME280;66481;51.332;22.804;2023-04-03T17:55:37;100230.38;;;1.50;61.28
77410;BME280;66481;51.332;22.804;2023-04-03T17:59:40;100229.22;;;1.61;58.78
77410;BME280;66481;51.332;22.804;2023-04-03T18:03:45;100224.25;;;1.53;60.37
77410;BME280;66481;51.332;22.804;2023-04-03T18:07:48;100225.16;;;1.50;60.84
77410;BME280;66481;51.332;22.804;2023-04-03T18:11:51;100228.50;;;1.56;60.21
77410;BME280;66481;51.332;22.804;2023-04-03T18:15:54;100242.50;;;1.53;61.28
77410;BME280;66481;51.332;22.804;2023-04-03T18:19:56;100237.22;;;1.56;59.91
77410;BME280;66481;51.332;22.804;2023-04-03T18:23:59;100230.28;;;1.55;59.74
77410;BME280;66481;51.332;22.804;2023-04-03T18:28:03;100233.78;;;1.54;59.78
77410;BME280;66481;51.332;22.804;2023-04-03T18:32:09;100237.50;;;1.45;60.28
77410;BME280;66481;51.332;22.804;2023-04-03T18:36:13;100241.13;;;1.40;61.75
77410;BME280;66481;51.332;22.804;2023-04-03T18:40:15;100241.94;;;1.42;62.42
77410;BME280;66481;51.332;22.804;2023-04-03T18:44:20;100242.16;;;1.34;63.08
77410;BME280;66481;51.332;22.804;2023-04-03T18:48:24;100245.88;;;1.25;64.62
77410;BME280;66481;51.332;22.804;2023-04-03T18:52:27;100243.88;;;1.35;64.30
77410;BME280;66481;51.332;22.804;2023-04-03T18:56:30;100252.69;;;1.29;64.46
77410;BME280;66481;51.332;22.804;2023-04-03T19:00:33;100251.59;;;1.38;63.36
77410;BME280;66481;51.332;22.804;2023-04-03T19:04:36;100249.16;;;1.32;62.56
77410;BME280;66481;51.332;22.804;2023-04-03T19:08:38;100244.03;;;1.29;62.51
77410;BME280;66481;51.332;22.804;2023-04-03T19:12:50;100252.63;;;1.33;62.28
77410;BME280;66481;51.332;22.804;2023-04-03T19:16:52;100251.03;;;1.27;62.78
77410;BME280;66481;51.332;22.804;2023-04-03T19:20:56;100251.81;;;1.30;62.89
77410;BME280;66481;51.332;22.804;2023-04-03T19:25:00;100257.91;;;1.29;62.26
77410;BME280;66481;51.332;22.804;2023-04-03T19:29:03;100252.84;;;1.25;62.45
77410;BME280;66481;51.332;22.804;2023-04-03T19:33:05;100259.66;;;1.29;61.43
77410;BME280;66481;51.332;22.804;2023-04-03T19:37:08;100258.91;;;1.25;63.25
77410;BME280;66481;51.332;22.804;2023-04-03T19:41:14;100268.47;;;1.25;62.53
77410;BME280;66481;51.332;22.804;2023-04-03T19:45:18;100262.56;;;1.18;62.25
77410;BME280;66481;51.332;22.804;2023-04-03T19:49:21;100272.19;;;1.16;62.06
77410;BME280;66481;51.332;22.804;2023-04-03T19:53:22;100285.03;;;1.22;62.37
77410;BME280;66481;51.332;22.804;2023-04-03T19:57:28;100282.50;;;1.19;62.40
77410;BME280;66481;51.332;22.804;2023-04-03T20:01:30;100287.66;;;1.22;61.97
77410;BME280;66481;51.332;22.804;2023-04-03T20:05:34;100290.31;;;1.19;62.24
77410;BME280;66481;51.332;22.804;2023-04-03T20:09:35;100283.25;;;1.24;60.49
77410;BME280;66481;51.332;22.804;2023-04-03T20:13:36;100285.03;;;1.22;61.64
77410;BME280;66481;51.332;22.804;2023-04-03T20:17:38;100285.28;;;1.13;61.23
77410;BME280;66481;51.332;22.804;2023-04-03T20:21:40;100281.69;;;1.17;61.66
77410;BME280;66481;51.332;22.804;2023-04-03T20:25:43;100277.31;;;1.18;61.15
77410;BME280;66481;51.332;22.804;2023-04-03T20:29:45;100280.84;;;1.17;61.36
77410;BME280;66481;51.332;22.804;2023-04-03T20:33:48;100280.19;;;1.08;61.86
77410;BME280;66481;51.332;22.804;2023-04-03T20:37:51;100279.59;;;0.99;62.43
77410;BME280;66481;51.332;22.804;2023-04-03T20:41:52;100280.47;;;0.98;62.51
77410;BME280;66481;51.332;22.804;2023-04-03T20:45:57;100279.72;;;0.92;62.83
77410;BME280;66481;51.332;22.804;2023-04-03T20:49:59;100279.91;;;0.85;63.12
77410;BME280;66481;51.332;22.804;2023-04-03T20:54:01;100279.88;;;0.86;63.86
77410;BME280;66481;51.332;22.804;2023-04-03T20:58:02;100276.44;;;0.84;64.07
77410;BME280;66481;51.332;22.804;2023-04-03T21:02:04;100277.25;;;0.86;63.62
77410;BME280;66481;51.332;22.804;2023-04-03T21:19:47;100289.94;;;0.66;65.13
77410;BME280;66481;51.332;22.804;2023-04-03T21:23:50;100286.59;;;0.61;65.77
77410;BME280;66481;51.332;22.804;2023-04-03T21:27:53;100277.78;;;0.65;66.25
77410;BME280;66481;51.332;22.804;2023-04-03T21:31:59;100288.22;;;0.65;65.82
77410;BME280;66481;51.332;22.804;2023-04-03T21:35:59;100272.84;;;0.54;66.77
77410;BME280;66481;51.332;22.804;2023-04-03T21:40:01;100279.72;;;0.56;66.39
77410;BME280;66481;51.332;22.804;2023-04-03T21:44:02;100270.09;;;0.59;66.65
77410;BME280;66481;51.332;22.804;2023-04-03T21:48:03;100271.19;;;0.50;66.11
77410;BME280;66481;51.332;22.804;2023-04-03T21:52:04;100268.03;;;0.37;67.02
77410;BME280;66481;51.332;22.804;2023-04-03T21:56:05;100265.53;;;0.31;67.27
77410;BME280;66481;51.332;22.804;2023-04-03T22:00:07;100256.06;;;0.28;66.82
77410;BME280;66481;51.332;22.804;2023-04-03T22:04:11;100260.75;;;0.14;68.66
77410;BME280;66481;51.332;22.804;2023-04-03T22:08:12;100260.22;;;-0.04;68.79
77410;BME280;66481;51.332;22.804;2023-04-03T22:12:13;100258.66;;;-0.11;68.78
77410;BME280;66481;51.332;22.804;2023-04-03T22:16:15;100264.78;;;-0.13;69.04
77410;BME280;66481;51.332;22.804;2023-04-03T22:20:16;100260.66;;;-0.24;68.75
77410;BME280;66481;51.332;22.804;2023-04-03T22:24:17;100250.59;;;-0.41;69.62
77410;BME280;66481;51.332;22.804;2023-04-03T22:28:20;100257.69;;;-0.50;70.84
77410;BME280;66481;51.332;22.804;2023-04-03T22:32:21;100266.41;;;-0.51;70.37
77410;BME280;66481;51.332;22.804;2023-04-03T22:36:22;100252.63;;;-0.55;70.06
77410;BME280;66481;51.332;22.804;2023-04-03T22:40:23;100234.81;;;-0.77;71.39
77410;BME280;66481;51.332;22.804;2023-04-03T22:44:24;100253.13;;;-0.83;71.41
77410;BME280;66481;51.332;22.804;2023-04-03T22:48:25;100248.88;;;-0.87;71.30
77410;BME280;66481;51.332;22.804;2023-04-03T22:52:27;100250.81;;;-0.98;71.02
77410;BME280;66481;51.332;22.804;2023-04-03T22:56:28;100245.94;;;-1.18;72.29
77410;BME280;66481;51.332;22.804;2023-04-03T23:00:29;100247.72;;;-1.20;73.29